Wetterverlauf

Letzte Wetterlage 25.10.2014 17:30
Wetterdiagramm
Tabellarische Darstellung
Datum Temperatur Windchill Feuchte Luftdruck Windrichtung Windstärke Niederschlag
25.10.2014 17:45 11,0 °C 11,0 °C 89 % 1020,9 hPa 131 0.0 0,00 mm
25.10.2014 17:30 11,1 °C 11,1 °C 88 % 1020,8 hPa 123 0.5 0,00 mm
25.10.2014 17:10 11,3 °C 11,3 °C 87 % 1020,7 hPa 135 0.0 0,00 mm
25.10.2014 17:00 11,5 °C 11,5 °C 86 % 1020,7 hPa 127 0.0 0,00 mm
25.10.2014 16:45 11,8 °C 11,8 °C 85 % 1020,5 hPa 131 0.5 0,00 mm
25.10.2014 16:30 12,0 °C 12,0 °C 84 % 1020,4 hPa 117 0.5 0,00 mm
25.10.2014 16:10 12,5 °C 12,5 °C 83 % 1020,5 hPa 135 0.0 0,00 mm
25.10.2014 16:00 12,6 °C 12,6 °C 82 % 1020,5 hPa 121 0.5 0,00 mm
25.10.2014 15:45 13,5 °C 13,5 °C 80 % 1020,3 hPa 119 0.0 0,00 mm
25.10.2014 15:30 13,7 °C 13,7 °C 81 % 1020,2 hPa 125 0.0 0,00 mm
25.10.2014 15:10 13,5 °C 13,5 °C 80 % 1020,3 hPa 270 0.6 0,00 mm
25.10.2014 15:00 13,7 °C 13,7 °C 79 % 1020,1 hPa 71 0.0 0,00 mm
25.10.2014 14:45 13,9 °C 13,9 °C 79 % 1020,2 hPa 142 0.0 0,00 mm
25.10.2014 14:30 13,7 °C 13,7 °C 80 % 1020,1 hPa 106 0.0 0,00 mm
25.10.2014 14:10 13,0 °C 13,0 °C 82 % 1020,0 hPa 270 0.0 0,00 mm
25.10.2014 14:00 12,5 °C 12,5 °C 84 % 1020,0 hPa 123 0.5 0,00 mm
25.10.2014 13:45 12,0 °C 12,0 °C 83 % 1020,0 hPa 115 1.5 0,00 mm
25.10.2014 13:30 11,8 °C 11,8 °C 85 % 1020,2 hPa 125 0.5 0,00 mm
25.10.2014 13:10 11,2 °C 11,2 °C 87 % 1020,2 hPa 180 0.6 0,00 mm
25.10.2014 13:00 11,0 °C 11,0 °C 87 % 1020,2 hPa 127 0.0 0,00 mm
25.10.2014 12:45 11,1 °C 11,1 °C 87 % 1020,2 hPa 127 0.5 0,00 mm
25.10.2014 12:30 11,1 °C 11,1 °C 87 % 1020,2 hPa 144 0.5 0,00 mm
25.10.2014 12:10 11,1 °C 11,1 °C 88 % 1020,1 hPa 135 0.0 0,00 mm
25.10.2014 12:00 10,8 °C 10,8 °C 89 % 1020,1 hPa 127 0.0 0,00 mm
25.10.2014 11:45 10,5 °C 10,5 °C 89 % 1020,2 hPa 130 0.5 0,00 mm
Empfehlen Sie wetter.com
| Mehr
Neue Wetterwarnung

Neue Niederschlagsmeldung
Neue Meldung
Regen Liveticker
    sehr starker Regen/Gewitter
    starker Regen/Gewitter
    mäßiger bis starker Regen
    mäßiger Regen
    leichter bis mäßiger Regen
    kein Regen